createdAt,value
2017-01-15T00:00:41.145Z,0
2017-01-15T00:01:41.552Z,0
2017-01-15T00:02:41.135Z,0
2017-01-15T00:03:41.117Z,0
2017-01-15T00:04:41.529Z,0
2017-01-15T00:05:42.194Z,0
2017-01-15T00:06:40.826Z,0
2017-01-15T00:07:41.799Z,0
2017-01-15T00:08:41.600Z,0
2017-01-15T00:09:40.867Z,0
2017-01-15T00:10:41.174Z,0
2017-01-15T00:11:41.231Z,0
2017-01-15T00:12:40.446Z,0
2017-01-15T00:13:41.193Z,0
2017-01-15T00:14:40.856Z,0
2017-01-15T00:15:41.310Z,0
2017-01-15T00:16:42.622Z,0
2017-01-15T00:17:41.271Z,0
2017-01-15T00:18:41.892Z,0
2017-01-15T00:19:41.240Z,0
2017-01-15T00:20:41.153Z,0
2017-01-15T00:21:40.958Z,0
2017-01-15T00:22:41.261Z,0
2017-01-15T00:23:40.923Z,0
2017-01-15T00:24:41.377Z,0
2017-01-15T00:25:41.778Z,0
2017-01-15T00:26:40.946Z,0
2017-01-15T00:27:43.299Z,0
2017-01-15T00:28:41.405Z,0
2017-01-15T00:29:42.622Z,0
2017-01-15T00:30:41.769Z,0
2017-01-15T00:31:40.985Z,0
2017-01-15T00:32:41.485Z,0
2017-01-15T00:33:41.004Z,0
2017-01-15T00:34:41.398Z,0
2017-01-15T00:35:41.404Z,0
2017-01-15T00:36:41.718Z,0
2017-01-15T00:37:41.422Z,0
2017-01-15T00:38:41.381Z,0
2017-01-15T00:39:40.647Z,0
2017-01-15T00:40:40.705Z,0
2017-01-15T00:41:40.664Z,0
2017-01-15T00:42:41.115Z,0
2017-01-15T00:43:41.467Z,0
2017-01-15T00:44:41.426Z,0
2017-01-15T00:45:41.191Z,0
2017-01-15T00:46:41.590Z,0
2017-01-15T00:47:41.901Z,0
2017-01-15T00:48:41.561Z,0
2017-01-15T00:49:41.562Z,0
2017-01-15T00:50:41.470Z,0
2017-01-15T00:51:41.476Z,0
2017-01-15T00:52:41.539Z,0
2017-01-15T00:53:41.593Z,0
2017-01-15T00:54:41.647Z,0
2017-01-15T00:55:41.116Z,0
2017-01-15T00:56:41.125Z,0
2017-01-15T00:57:41.174Z,0
2017-01-15T00:58:42.191Z,0
2017-01-15T00:59:41.142Z,0
2017-01-15T01:00:41.944Z,0
2017-01-15T01:01:41.155Z,0
2017-01-15T01:02:41.558Z,0
2017-01-15T01:03:41.237Z,0
2017-01-15T01:04:41.676Z,0
2017-01-15T01:05:42.078Z,0
2017-01-15T01:06:41.297Z,0
2017-01-15T01:07:41.597Z,0
2017-01-15T01:08:42.003Z,0
2017-01-15T01:09:42.927Z,0
2017-01-15T01:10:41.666Z,0
2017-01-15T01:11:42.110Z,0
2017-01-15T01:12:41.638Z,0
2017-01-15T01:13:56.874Z,0
2017-01-15T01:14:41.698Z,0
2017-01-15T01:15:42.104Z,0
2017-01-15T01:16:41.713Z,0
2017-01-15T01:17:42.168Z,0
2017-01-15T01:18:40.986Z,0
2017-01-15T01:19:41.287Z,0
2017-01-15T01:20:42.648Z,0
2017-01-15T01:21:42.095Z,0
2017-01-15T01:22:42.260Z,0
2017-01-15T01:23:41.771Z,0
2017-01-15T01:24:42.023Z,0
2017-01-15T01:25:41.778Z,0
2017-01-15T01:26:41.740Z,0
2017-01-15T01:27:41.794Z,0
2017-01-15T01:28:41.805Z,0
2017-01-15T01:29:42.263Z,0
2017-01-15T01:30:42.178Z,0
2017-01-15T01:31:43.176Z,0
2017-01-15T01:32:41.836Z,0
2017-01-15T01:33:42.500Z,0
2017-01-15T01:34:41.505Z,0
2017-01-15T01:35:42.349Z,0
2017-01-15T01:36:41.811Z,0
2017-01-15T01:37:41.871Z,0
2017-01-15T01:38:41.093Z,0
2017-01-15T01:39:41.941Z,0
2017-01-15T01:40:41.100Z,0
2017-01-15T01:41:41.507Z,0
2017-01-15T01:42:43.272Z,0
2017-01-15T01:43:42.349Z,0
2017-01-15T01:44:42.425Z,0
2017-01-15T01:45:41.939Z,0
2017-01-15T01:46:41.946Z,0
2017-01-15T01:47:41.610Z,0
2017-01-15T01:48:42.366Z,0
2017-01-15T01:49:42.212Z,0
2017-01-15T01:50:42.048Z,0
2017-01-15T01:51:41.644Z,0
2017-01-15T01:52:41.593Z,0
2017-01-15T01:53:42.941Z,0
2017-01-15T01:54:41.705Z,0
2017-01-15T01:55:42.453Z,0
2017-01-15T01:56:41.224Z,0
2017-01-15T01:57:42.072Z,0
2017-01-15T01:58:41.650Z,0
2017-01-15T01:59:41.991Z,0
2017-01-15T02:00:42.048Z,0
2017-01-15T02:01:41.713Z,0
2017-01-15T02:02:42.113Z,0
2017-01-15T02:03:42.068Z,0
2017-01-15T02:04:42.983Z,0
2017-01-15T02:05:41.686Z,0
2017-01-15T02:06:42.632Z,0
2017-01-15T02:07:41.258Z,0
2017-01-15T02:08:42.159Z,0
2017-01-15T02:09:41.715Z,0
2017-01-15T02:10:42.220Z,0
2017-01-15T02:11:42.078Z,0
2017-01-15T02:12:41.791Z,0
2017-01-15T02:13:42.591Z,0
2017-01-15T02:14:41.755Z,0
2017-01-15T02:15:43.472Z,0
2017-01-15T02:16:41.872Z,0
2017-01-15T02:17:42.731Z,0
2017-01-15T02:18:41.890Z,0
2017-01-15T02:19:41.743Z,0
2017-01-15T02:20:41.751Z,0
2017-01-15T02:21:42.655Z,0
2017-01-15T02:22:42.162Z,0
2017-01-15T02:23:41.824Z,0
2017-01-15T02:24:42.183Z,0
2017-01-15T02:25:42.233Z,0
2017-01-15T02:26:43.697Z,0
2017-01-15T02:27:42.356Z,0
2017-01-15T02:28:43.059Z,0
2017-01-15T02:29:41.872Z,0
2017-01-15T02:30:42.229Z,0
2017-01-15T02:31:41.749Z,0
2017-01-15T02:32:41.942Z,0
2017-01-15T02:33:41.905Z,0
2017-01-15T02:34:42.704Z,0
2017-01-15T02:35:42.309Z,0
2017-01-15T02:36:41.975Z,0
2017-01-15T02:37:43.991Z,0
2017-01-15T02:38:41.650Z,0
2017-01-15T02:39:43.245Z,0
2017-01-15T02:40:42.064Z,0
2017-01-15T02:41:42.315Z,0
2017-01-15T02:42:41.523Z,0
2017-01-15T02:43:42.798Z,0
2017-01-15T02:44:42.725Z,0
2017-01-15T02:45:42.442Z,0
2017-01-15T02:46:42.049Z,0
2017-01-15T02:47:42.801Z,0
2017-01-15T02:48:44.386Z,0
2017-01-15T02:49:43.215Z,0
2017-01-15T02:50:43.781Z,0
2017-01-15T02:51:42.133Z,0
2017-01-15T02:52:42.881Z,0
2017-01-15T02:53:42.447Z,0
2017-01-15T02:54:42.405Z,0
2017-01-15T02:55:42.858Z,0
2017-01-15T02:56:42.551Z,0
2017-01-15T02:57:42.131Z,0
2017-01-15T02:58:42.492Z,0
2017-01-15T02:59:42.492Z,0
2017-01-15T03:00:42.058Z,0
2017-01-15T03:01:43.965Z,0
2017-01-15T03:02:42.966Z,0
2017-01-15T03:03:42.968Z,0
2017-01-15T03:04:42.978Z,0
2017-01-15T03:05:42.194Z,0
2017-01-15T03:06:42.550Z,0
2017-01-15T03:07:42.602Z,0
2017-01-15T03:08:42.514Z,0
2017-01-15T03:09:43.015Z,0
2017-01-15T03:10:42.577Z,0
2017-01-15T03:11:42.589Z,0
2017-01-15T03:12:41.752Z,0
2017-01-15T03:13:42.599Z,0
2017-01-15T03:14:42.614Z,0
2017-01-15T03:15:43.013Z,0
2017-01-15T03:16:43.070Z,0
2017-01-15T03:17:41.891Z,0
2017-01-15T03:18:42.242Z,0
2017-01-15T03:19:42.298Z,0
2017-01-15T03:20:42.224Z,0
2017-01-15T03:21:42.710Z,0
2017-01-15T03:22:42.721Z,0
2017-01-15T03:23:44.401Z,0
2017-01-15T03:24:43.081Z,0
2017-01-15T03:25:43.033Z,0
2017-01-15T03:26:42.650Z,0
2017-01-15T03:27:42.703Z,0
2017-01-15T03:28:42.710Z,0
2017-01-15T03:29:42.325Z,0
2017-01-15T03:30:42.776Z,0
2017-01-15T03:31:43.132Z,0
2017-01-15T03:32:42.843Z,0
2017-01-15T03:33:43.247Z,0
2017-01-15T03:34:42.312Z,0
2017-01-15T03:35:43.165Z,0
2017-01-15T03:36:42.381Z,0
2017-01-15T03:37:42.730Z,0
2017-01-15T03:38:42.887Z,0
2017-01-15T03:39:43.240Z,0
2017-01-15T03:40:42.753Z,0
2017-01-15T03:41:42.470Z,0
2017-01-15T03:42:42.817Z,0
2017-01-15T03:43:42.977Z,0
2017-01-15T03:44:42.787Z,0
2017-01-15T03:45:42.797Z,0
2017-01-15T03:46:42.901Z,0
2017-01-15T03:47:42.854Z,0
2017-01-15T03:48:42.913Z,0
2017-01-15T03:49:42.533Z,0
2017-01-15T03:50:42.876Z,0
2017-01-15T03:51:43.387Z,0
2017-01-15T03:52:42.836Z,0
2017-01-15T03:53:42.055Z,0
2017-01-15T03:54:43.354Z,0
2017-01-15T03:55:42.425Z,0
2017-01-15T03:56:42.628Z,0
2017-01-15T03:57:43.380Z,0
2017-01-15T03:58:42.547Z,0
2017-01-15T03:59:42.893Z,0
2017-01-15T04:00:42.659Z,0
2017-01-15T04:01:42.560Z,0
2017-01-15T04:02:42.568Z,0
2017-01-15T04:03:43.434Z,0
2017-01-15T04:04:42.981Z,0
2017-01-15T04:05:43.391Z,0
2017-01-15T04:06:42.644Z,0
2017-01-15T04:07:43.394Z,0
2017-01-15T04:08:42.570Z,0
2017-01-15T04:09:43.413Z,0
2017-01-15T04:10:43.180Z,0
2017-01-15T04:11:43.081Z,0
2017-01-15T04:12:43.095Z,0
2017-01-15T04:13:43.045Z,0
2017-01-15T04:14:43.448Z,0
2017-01-15T04:15:42.664Z,0
2017-01-15T04:16:43.671Z,0
2017-01-15T04:17:43.502Z,0
2017-01-15T04:18:43.087Z,0
2017-01-15T04:19:43.535Z,0
2017-01-15T04:20:43.052Z,0
2017-01-15T04:21:42.669Z,0
2017-01-15T04:22:42.720Z,0
2017-01-15T04:23:42.777Z,0
2017-01-15T04:24:42.734Z,0
2017-01-15T04:25:42.685Z,0
2017-01-15T04:26:43.194Z,0
2017-01-15T04:27:44.005Z,0
2017-01-15T04:28:43.502Z,0
2017-01-15T04:29:43.318Z,0
2017-01-15T04:30:43.472Z,0
2017-01-15T04:31:42.732Z,0
2017-01-15T04:32:42.793Z,0
2017-01-15T04:33:43.148Z,0
2017-01-15T04:34:43.217Z,0
2017-01-15T04:35:43.207Z,0
2017-01-15T04:36:43.171Z,0
2017-01-15T04:37:42.825Z,0
2017-01-15T04:38:44.389Z,0
2017-01-15T04:39:43.743Z,0
2017-01-15T04:40:43.642Z,0
2017-01-15T04:41:43.700Z,0
2017-01-15T04:42:43.660Z,0
2017-01-15T04:43:43.238Z,0
2017-01-15T04:44:43.328Z,0
2017-01-15T04:45:42.840Z,0
2017-01-15T04:46:43.792Z,0
2017-01-15T04:47:42.976Z,0
2017-01-15T04:48:42.860Z,0
2017-01-15T04:49:44.760Z,0
2017-01-15T04:50:42.877Z,0
2017-01-15T04:51:44.180Z,0
2017-01-15T04:52:42.893Z,0
2017-01-15T04:53:42.951Z,0
2017-01-15T04:54:43.748Z,0
2017-01-15T04:55:42.912Z,0
2017-01-15T04:56:43.760Z,0
2017-01-15T04:57:43.817Z,0
2017-01-15T04:58:43.329Z,0
2017-01-15T04:59:42.989Z,0
2017-01-15T05:00:45.137Z,0
2017-01-15T05:01:43.454Z,0
2017-01-15T05:02:44.672Z,0
2017-01-15T05:03:43.812Z,0
2017-01-15T05:04:43.075Z,0
2017-01-15T05:05:43.830Z,0
2017-01-15T05:06:43.489Z,0
2017-01-15T05:07:42.654Z,0
2017-01-15T05:08:43.454Z,0
2017-01-15T05:09:43.859Z,0
2017-01-15T05:10:43.130Z,0
2017-01-15T05:11:43.081Z,0
2017-01-15T05:12:43.882Z,0
2017-01-15T05:13:45.049Z,0
2017-01-15T05:14:43.896Z,0
2017-01-15T05:15:43.061Z,0
2017-01-15T05:16:43.124Z,0
2017-01-15T05:17:43.075Z,0
2017-01-15T05:18:42.787Z,0
2017-01-15T05:19:44.031Z,0
2017-01-15T05:20:43.097Z,0
2017-01-15T05:21:43.949Z,0
2017-01-15T05:22:43.036Z,0
2017-01-15T05:23:43.424Z,0
2017-01-15T05:24:44.893Z,0
2017-01-15T05:25:43.181Z,0
2017-01-15T05:26:43.587Z,0
2017-01-15T05:27:43.202Z,0
2017-01-15T05:28:43.236Z,0
2017-01-15T05:29:43.611Z,0
2017-01-15T05:30:43.175Z,0
2017-01-15T05:31:43.691Z,0
2017-01-15T05:32:43.484Z,0
2017-01-15T05:33:43.740Z,0
2017-01-15T05:34:43.695Z,0
2017-01-15T05:35:43.257Z,0
2017-01-15T05:36:43.272Z,0
2017-01-15T05:37:43.274Z,0
2017-01-15T05:38:43.282Z,0
2017-01-15T05:39:43.640Z,0
2017-01-15T05:40:43.741Z,0
2017-01-15T05:41:43.703Z,0
2017-01-15T05:42:44.131Z,0
2017-01-15T05:43:43.319Z,0
2017-01-15T05:44:44.044Z,0
2017-01-15T05:45:43.381Z,0
2017-01-15T05:46:43.358Z,0
2017-01-15T05:47:43.298Z,0
2017-01-15T05:48:43.009Z,0
2017-01-15T05:49:43.357Z,0
2017-01-15T05:50:43.715Z,0
2017-01-15T05:51:43.426Z,0
2017-01-15T05:52:43.733Z,0
2017-01-15T05:53:44.182Z,0
2017-01-15T05:54:43.895Z,0
2017-01-15T05:55:44.398Z,0
2017-01-15T05:56:43.823Z,0
2017-01-15T05:57:43.821Z,0
2017-01-15T05:58:43.530Z,0
2017-01-15T05:59:43.415Z,0
2017-01-15T06:00:43.397Z,0
2017-01-15T06:01:43.846Z,0
2017-01-15T06:02:43.882Z,0
2017-01-15T06:03:43.465Z,0
2017-01-15T06:04:43.960Z,0
2017-01-15T06:05:44.321Z,0
2017-01-15T06:06:44.930Z,0
2017-01-15T06:07:43.447Z,0
2017-01-15T06:08:44.147Z,0
2017-01-15T06:09:43.907Z,0
2017-01-15T06:10:43.925Z,0
2017-01-15T06:11:44.334Z,0
2017-01-15T06:12:43.532Z,0
2017-01-15T06:13:43.490Z,0
2017-01-15T06:14:43.155Z,0
2017-01-15T06:15:43.505Z,0
2017-01-15T06:16:44.013Z,0
2017-01-15T06:17:45.211Z,0
2017-01-15T06:18:43.978Z,0
2017-01-15T06:19:44.537Z,0
2017-01-15T06:20:44.078Z,0
2017-01-15T06:21:43.206Z,0
2017-01-15T06:22:44.056Z,0
2017-01-15T06:23:43.665Z,0
2017-01-15T06:24:43.623Z,0
2017-01-15T06:25:44.080Z,0
2017-01-15T06:26:43.639Z,0
2017-01-15T06:27:44.095Z,0
2017-01-15T06:28:45.611Z,0
2017-01-15T06:29:44.504Z,0
2017-01-15T06:30:44.921Z,0
2017-01-15T06:31:44.518Z,0
2017-01-15T06:32:44.452Z,0
2017-01-15T06:33:44.038Z,0
2017-01-15T06:34:44.542Z,0
2017-01-15T06:35:43.808Z,0
2017-01-15T06:36:44.163Z,0
2017-01-15T06:37:43.727Z,0
2017-01-15T06:38:44.524Z,0
2017-01-15T06:39:45.520Z,0
2017-01-15T06:40:44.143Z,0
2017-01-15T06:41:45.152Z,0
2017-01-15T06:42:44.204Z,0
2017-01-15T06:43:44.462Z,0
2017-01-15T06:44:43.826Z,0
2017-01-15T06:45:43.787Z,0
2017-01-15T06:46:43.742Z,0
2017-01-15T06:47:43.846Z,0
2017-01-15T06:48:44.202Z,0
2017-01-15T06:49:43.861Z,0
2017-01-15T06:50:44.663Z,0
2017-01-15T06:51:44.085Z,0
2017-01-15T06:52:45.681Z,0
2017-01-15T06:53:43.847Z,0
2017-01-15T06:54:44.249Z,0
2017-01-15T06:55:44.203Z,0
2017-01-15T06:56:43.420Z,0
2017-01-15T06:57:44.715Z,0
2017-01-15T06:58:43.822Z,0
2017-01-15T06:59:44.188Z,0
2017-01-15T07:00:43.898Z,4
2017-01-15T07:01:44.352Z,4
2017-01-15T07:02:44.752Z,0
2017-01-15T07:03:44.265Z,0
2017-01-15T07:04:44.371Z,4
2017-01-15T07:05:44.385Z,4
2017-01-15T07:06:44.360Z,0
2017-01-15T07:07:43.897Z,4
2017-01-15T07:08:44.003Z,4
2017-01-15T07:09:43.971Z,4
2017-01-15T07:10:45.564Z,4
2017-01-15T07:11:43.609Z,4
2017-01-15T07:12:44.826Z,4
2017-01-15T07:13:43.945Z,4
2017-01-15T07:14:43.705Z,8
2017-01-15T07:15:44.799Z,8
2017-01-15T07:16:44.808Z,12
2017-01-15T07:17:44.423Z,12
2017-01-15T07:18:44.480Z,8
2017-01-15T07:19:44.829Z,16
2017-01-15T07:20:44.834Z,16
2017-01-15T07:21:45.402Z,16
2017-01-15T07:22:44.508Z,16
2017-01-15T07:23:44.911Z,16
2017-01-15T07:24:44.419Z,20
2017-01-15T07:25:44.087Z,24
2017-01-15T07:26:44.142Z,24
2017-01-15T07:27:44.146Z,28
2017-01-15T07:28:44.448Z,28
2017-01-15T07:29:44.089Z,32
2017-01-15T07:30:44.121Z,32
2017-01-15T07:31:44.579Z,36
2017-01-15T07:32:45.245Z,40
2017-01-15T07:33:44.538Z,44
2017-01-15T07:34:45.351Z,44
2017-01-15T07:35:44.577Z,48
2017-01-15T07:36:44.910Z,48
2017-01-15T07:37:44.568Z,52
2017-01-15T07:38:44.524Z,60
2017-01-15T07:39:44.981Z,60
2017-01-15T07:40:43.803Z,64
2017-01-15T07:41:44.628Z,68
2017-01-15T07:42:44.259Z,72
2017-01-15T07:43:45.430Z,76
2017-01-15T07:44:44.172Z,80
2017-01-15T07:45:45.536Z,84
2017-01-15T07:46:44.188Z,88
2017-01-15T07:47:44.695Z,92
2017-01-15T07:48:44.508Z,100
2017-01-15T07:49:44.607Z,104
2017-01-15T07:50:44.368Z,108
2017-01-15T07:51:45.015Z,116
2017-01-15T07:52:44.282Z,116
2017-01-15T07:53:44.296Z,124
2017-01-15T07:54:44.699Z,132
2017-01-15T07:55:44.355Z,136
2017-01-15T07:56:45.912Z,140
2017-01-15T07:57:44.866Z,140
2017-01-15T07:58:44.825Z,144
2017-01-15T07:59:45.079Z,152
2017-01-15T08:00:44.342Z,156
2017-01-15T08:01:45.144Z,156
2017-01-15T08:02:45.202Z,164
2017-01-15T08:03:44.809Z,172
2017-01-15T08:04:45.114Z,168
2017-01-15T08:05:44.428Z,172
2017-01-15T08:06:44.884Z,176
2017-01-15T08:07:44.420Z,184
2017-01-15T08:08:44.748Z,192
2017-01-15T08:09:45.461Z,196
2017-01-15T08:10:44.022Z,192
2017-01-15T08:11:44.479Z,188
2017-01-15T08:12:44.828Z,192
2017-01-15T08:13:45.286Z,204
2017-01-15T08:14:44.846Z,212
2017-01-15T08:15:44.851Z,224
2017-01-15T08:16:44.820Z,248
2017-01-15T08:17:44.473Z,280
2017-01-15T08:18:45.269Z,324
2017-01-15T08:19:44.885Z,328
2017-01-15T08:20:45.811Z,308
2017-01-15T08:21:44.756Z,312
2017-01-15T08:22:45.296Z,324
2017-01-15T08:23:44.468Z,332
2017-01-15T08:24:45.312Z,356
2017-01-15T08:25:44.926Z,360
2017-01-15T08:26:44.993Z,352
2017-01-15T08:27:45.300Z,356
2017-01-15T08:28:44.952Z,368
2017-01-15T08:29:45.105Z,372
2017-01-15T08:30:44.571Z,384
2017-01-15T08:31:45.020Z,388
2017-01-15T08:32:44.584Z,388
2017-01-15T08:33:44.598Z,412
2017-01-15T08:34:44.568Z,428
2017-01-15T08:35:45.049Z,424
2017-01-15T08:36:45.010Z,420
2017-01-15T08:37:44.674Z,428
2017-01-15T08:38:46.378Z,444
2017-01-15T08:39:44.586Z,456
2017-01-15T08:40:45.242Z,468
2017-01-15T08:41:45.694Z,512
2017-01-15T08:42:45.054Z,556
2017-01-15T08:43:44.666Z,608
2017-01-15T08:44:45.017Z,740
2017-01-15T08:45:45.772Z,956
2017-01-15T08:46:44.691Z,984
2017-01-15T08:47:45.103Z,1032
2017-01-15T08:48:45.551Z,1144
2017-01-15T08:49:45.112Z,1152
2017-01-15T08:50:44.772Z,1180
2017-01-15T08:51:45.786Z,1168
2017-01-15T08:52:44.345Z,1176
2017-01-15T08:53:45.545Z,1236
2017-01-15T08:54:44.807Z,1192
2017-01-15T08:55:45.263Z,1176
2017-01-15T08:56:44.724Z,1208
2017-01-15T08:57:45.529Z,1252
2017-01-15T08:58:45.339Z,1196
2017-01-15T08:59:45.147Z,852
2017-01-15T09:00:45.647Z,1312
2017-01-15T09:01:45.612Z,1352
2017-01-15T09:02:46.724Z,1416
2017-01-15T09:03:45.254Z,1392
2017-01-15T09:04:45.977Z,1496
2017-01-15T09:05:44.851Z,1560
2017-01-15T09:06:44.818Z,1532
2017-01-15T09:07:45.265Z,1568
2017-01-15T09:08:45.620Z,1648
2017-01-15T09:09:45.730Z,1740
2017-01-15T09:10:45.342Z,1816
2017-01-15T09:11:45.303Z,1872
2017-01-15T09:12:44.973Z,1808
2017-01-15T09:13:47.049Z,1760
2017-01-15T09:14:44.939Z,1864
2017-01-15T09:15:44.894Z,1804
2017-01-15T09:16:45.006Z,1880
2017-01-15T09:17:45.709Z,1880
2017-01-15T09:18:45.427Z,1768
2017-01-15T09:19:44.540Z,1720
2017-01-15T09:20:44.966Z,1948
2017-01-15T09:21:44.961Z,1748
2017-01-15T09:22:45.100Z,2000
2017-01-15T09:23:45.074Z,1916
2017-01-15T09:24:47.350Z,1956
2017-01-15T09:25:45.391Z,1960
2017-01-15T09:26:46.567Z,1912
2017-01-15T09:27:45.517Z,1880
2017-01-15T09:28:45.819Z,2128
2017-01-15T09:29:45.433Z,2136
2017-01-15T09:30:45.046Z,2056
2017-01-15T09:31:45.162Z,1832
2017-01-15T09:32:44.675Z,1992
2017-01-15T09:33:45.969Z,2180
2017-01-15T09:34:45.140Z,2224
2017-01-15T09:35:45.264Z,2292
2017-01-15T09:36:45.507Z,2260
2017-01-15T09:37:45.566Z,2136
2017-01-15T09:38:45.526Z,2260
2017-01-15T09:39:46.034Z,1964
2017-01-15T09:40:45.201Z,1436
2017-01-15T09:41:45.210Z,1508
2017-01-15T09:42:46.065Z,1236
2017-01-15T09:43:45.277Z,1272
2017-01-15T09:44:46.276Z,1400
2017-01-15T09:45:45.254Z,1328
2017-01-15T09:46:45.755Z,1504
2017-01-15T09:47:46.109Z,1928
2017-01-15T09:48:45.224Z,1524
2017-01-15T09:49:45.636Z,1396
2017-01-15T09:50:45.643Z,1064
2017-01-15T09:51:45.352Z,880
2017-01-15T09:52:45.312Z,956
2017-01-15T09:53:45.772Z,1260
2017-01-15T09:54:45.378Z,924
2017-01-15T09:55:46.587Z,1252
2017-01-15T09:56:45.297Z,1100
2017-01-15T09:57:45.948Z,876
2017-01-15T09:58:46.108Z,816
2017-01-15T09:59:46.280Z,780
2017-01-15T10:00:44.932Z,900
2017-01-15T10:01:45.783Z,964
2017-01-15T10:02:45.347Z,908
2017-01-15T10:03:45.755Z,1012
2017-01-15T10:04:46.157Z,960
2017-01-15T10:05:46.214Z,1348
2017-01-15T10:06:47.079Z,1396
2017-01-15T10:07:45.490Z,1308
2017-01-15T10:08:46.297Z,1020
2017-01-15T10:09:45.554Z,900
2017-01-15T10:10:46.116Z,760
2017-01-15T10:11:45.578Z,652
2017-01-15T10:12:45.429Z,748
2017-01-15T10:13:45.506Z,888
2017-01-15T10:14:45.502Z,892
2017-01-15T10:15:45.910Z,868
2017-01-15T10:16:46.013Z,768
2017-01-15T10:17:47.319Z,588
2017-01-15T10:18:45.929Z,600
2017-01-15T10:19:46.746Z,696
2017-01-15T10:20:45.943Z,608
2017-01-15T10:21:46.500Z,616
2017-01-15T10:22:46.322Z,644
2017-01-15T10:23:46.067Z,816
2017-01-15T10:24:46.026Z,996
2017-01-15T10:25:45.300Z,1084
2017-01-15T10:26:45.543Z,1076
2017-01-15T10:27:45.601Z,1060
2017-01-15T10:28:45.660Z,1076
2017-01-15T10:29:45.581Z,1080
2017-01-15T10:30:47.498Z,1144
2017-01-15T10:31:45.684Z,1192
2017-01-15T10:32:46.441Z,1216
2017-01-15T10:33:45.700Z,1224
2017-01-15T10:34:46.106Z,1208
2017-01-15T10:35:46.061Z,1188
2017-01-15T10:36:46.071Z,1156
2017-01-15T10:37:45.663Z,1136
2017-01-15T10:38:46.483Z,1092
2017-01-15T10:39:46.107Z,1104
2017-01-15T10:40:46.107Z,1072
2017-01-15T10:41:45.720Z,1036
2017-01-15T10:42:46.123Z,1020
2017-01-15T10:43:46.083Z,988
2017-01-15T10:44:45.692Z,1048
2017-01-15T10:45:46.541Z,1144
2017-01-15T10:46:46.607Z,1056
2017-01-15T10:47:45.324Z,940
2017-01-15T10:48:45.429Z,948
2017-01-15T10:49:45.732Z,948
2017-01-15T10:50:46.386Z,900
2017-01-15T10:51:46.246Z,932
2017-01-15T10:52:46.201Z,944
2017-01-15T10:53:45.818Z,944
2017-01-15T10:54:46.560Z,944
2017-01-15T10:55:46.223Z,924
2017-01-15T10:56:45.834Z,896
2017-01-15T10:57:46.242Z,828
2017-01-15T10:58:46.691Z,756
2017-01-15T10:59:45.513Z,704
2017-01-15T11:00:45.921Z,664
2017-01-15T11:01:46.633Z,636
2017-01-15T11:02:46.721Z,628
2017-01-15T11:03:45.842Z,640
2017-01-15T11:04:46.298Z,636
2017-01-15T11:05:46.312Z,628
2017-01-15T11:06:46.316Z,608
2017-01-15T11:07:46.328Z,588
2017-01-15T11:08:45.932Z,588
2017-01-15T11:09:46.433Z,596
2017-01-15T11:10:46.388Z,612
2017-01-15T11:11:45.610Z,584
2017-01-15T11:12:47.310Z,564
2017-01-15T11:13:46.865Z,552
2017-01-15T11:14:46.571Z,548
2017-01-15T11:15:45.646Z,576
2017-01-15T11:16:46.390Z,608
2017-01-15T11:17:46.843Z,652
2017-01-15T11:18:46.354Z,680
2017-01-15T11:19:46.413Z,696
2017-01-15T11:20:46.423Z,732
2017-01-15T11:21:46.377Z,740
2017-01-15T11:22:46.783Z,720
2017-01-15T11:23:47.597Z,724
2017-01-15T11:24:46.055Z,712
2017-01-15T11:25:46.886Z,688
2017-01-15T11:26:45.719Z,688
2017-01-15T11:27:46.420Z,688
2017-01-15T11:28:46.086Z,692
2017-01-15T11:29:46.443Z,696
2017-01-15T11:30:45.705Z,684
2017-01-15T11:31:46.156Z,688
2017-01-15T11:32:47.009Z,696
2017-01-15T11:33:46.867Z,692
2017-01-15T11:34:47.941Z,696
2017-01-15T11:35:46.955Z,700
2017-01-15T11:36:46.854Z,724
2017-01-15T11:37:45.758Z,748
2017-01-15T11:38:46.611Z,776
2017-01-15T11:39:46.961Z,788
2017-01-15T11:40:46.917Z,824
2017-01-15T11:41:46.580Z,848
2017-01-15T11:42:46.203Z,824
2017-01-15T11:43:47.044Z,800
2017-01-15T11:44:46.948Z,776
2017-01-15T11:45:46.663Z,768
2017-01-15T11:46:47.033Z,764
2017-01-15T11:47:47.329Z,768
2017-01-15T11:48:45.790Z,788
2017-01-15T11:49:46.583Z,820
2017-01-15T11:50:46.251Z,840
2017-01-15T11:51:46.754Z,868
2017-01-15T11:52:46.913Z,844
2017-01-15T11:53:46.275Z,864
2017-01-15T11:54:47.075Z,856
2017-01-15T11:55:47.080Z,856
2017-01-15T11:56:46.698Z,872
2017-01-15T11:57:46.700Z,864
2017-01-15T11:58:47.928Z,868
2017-01-15T11:59:46.714Z,844
2017-01-15T12:00:46.726Z,844
2017-01-15T12:01:46.292Z,832
2017-01-15T12:02:46.786Z,824
2017-01-15T12:03:46.848Z,828
2017-01-15T12:04:46.805Z,836
2017-01-15T12:05:46.811Z,832
2017-01-15T12:06:47.110Z,808
2017-01-15T12:07:46.927Z,800
2017-01-15T12:08:46.388Z,748
2017-01-15T12:09:47.208Z,720
2017-01-15T12:10:46.800Z,676
2017-01-15T12:11:46.855Z,656
2017-01-15T12:12:47.064Z,632
2017-01-15T12:13:46.374Z,608
2017-01-15T12:14:46.433Z,600
2017-01-15T12:15:46.839Z,588
2017-01-15T12:16:46.796Z,576
2017-01-15T12:17:47.599Z,564
2017-01-15T12:18:47.414Z,560
2017-01-15T12:19:46.868Z,556
2017-01-15T12:20:46.924Z,556
2017-01-15T12:21:46.199Z,552
2017-01-15T12:22:46.891Z,548
2017-01-15T12:23:46.954Z,544
2017-01-15T12:24:47.005Z,536
2017-01-15T12:25:46.564Z,532
2017-01-15T12:26:47.313Z,528
2017-01-15T12:27:47.323Z,528
2017-01-15T12:28:46.982Z,528
2017-01-15T12:29:47.793Z,520
2017-01-15T12:30:46.549Z,520
2017-01-15T12:31:47.464Z,516
2017-01-15T12:32:46.179Z,520
2017-01-15T12:33:46.676Z,512
2017-01-15T12:34:47.036Z,500
2017-01-15T12:35:47.083Z,500
2017-01-15T12:36:46.600Z,508
2017-01-15T12:37:47.049Z,500
2017-01-15T12:38:46.612Z,496
2017-01-15T12:39:47.064Z,488
2017-01-15T12:40:48.364Z,492
2017-01-15T12:41:47.429Z,472
2017-01-15T12:42:48.138Z,468
2017-01-15T12:43:46.300Z,480
2017-01-15T12:44:47.154Z,464
2017-01-15T12:45:47.508Z,464
2017-01-15T12:46:47.167Z,460
2017-01-15T12:47:46.681Z,472
2017-01-15T12:48:46.691Z,476
2017-01-15T12:49:46.792Z,476
2017-01-15T12:50:46.756Z,476
2017-01-15T12:51:47.102Z,468
2017-01-15T12:52:47.459Z,468
2017-01-15T12:53:46.329Z,484
2017-01-15T12:54:47.226Z,480
2017-01-15T12:55:46.683Z,468
2017-01-15T12:56:47.143Z,452
2017-01-15T12:57:46.356Z,472
2017-01-15T12:58:46.370Z,484
2017-01-15T12:59:46.373Z,472
2017-01-15T13:00:47.722Z,460
2017-01-15T13:01:46.732Z,444
2017-01-15T13:02:47.528Z,424
2017-01-15T13:03:46.453Z,460
2017-01-15T13:04:49.170Z,476
2017-01-15T13:05:46.866Z,496
2017-01-15T13:06:47.167Z,516
2017-01-15T13:07:47.271Z,520
2017-01-15T13:08:46.834Z,500
2017-01-15T13:09:46.791Z,508
2017-01-15T13:10:47.592Z,512
2017-01-15T13:11:48.052Z,508
2017-01-15T13:12:47.311Z,500
2017-01-15T13:13:47.819Z,508
2017-01-15T13:14:47.223Z,476
2017-01-15T13:15:47.331Z,480
2017-01-15T13:16:47.933Z,476
2017-01-15T13:17:46.948Z,460
2017-01-15T13:18:47.255Z,460
2017-01-15T13:19:47.658Z,468
2017-01-15T13:20:47.429Z,468
2017-01-15T13:21:47.376Z,468
2017-01-15T13:22:48.050Z,460
2017-01-15T13:23:47.340Z,456
2017-01-15T13:24:48.249Z,464
2017-01-15T13:25:46.512Z,460
2017-01-15T13:26:47.807Z,460
2017-01-15T13:27:46.630Z,464
2017-01-15T13:28:47.775Z,472
2017-01-15T13:29:47.036Z,464
2017-01-15T13:30:47.402Z,448
2017-01-15T13:31:46.605Z,432
2017-01-15T13:32:47.359Z,416
2017-01-15T13:33:47.032Z,404
2017-01-15T13:34:47.076Z,392
2017-01-15T13:35:48.826Z,384
2017-01-15T13:36:47.389Z,384
2017-01-15T13:37:48.097Z,376
2017-01-15T13:38:47.500Z,376
2017-01-15T13:39:47.958Z,372
2017-01-15T13:40:47.019Z,368
2017-01-15T13:41:47.028Z,360
2017-01-15T13:42:47.578Z,356
2017-01-15T13:43:47.438Z,376
2017-01-15T13:44:47.441Z,376
2017-01-15T13:45:47.501Z,372
2017-01-15T13:46:47.457Z,372
2017-01-15T13:47:46.726Z,368
2017-01-15T13:48:46.682Z,376
2017-01-15T13:49:47.527Z,388
2017-01-15T13:50:47.587Z,396
2017-01-15T13:51:47.543Z,388
2017-01-15T13:52:47.504Z,372
2017-01-15T13:53:47.565Z,388
2017-01-15T13:54:48.013Z,412
2017-01-15T13:55:47.977Z,396
2017-01-15T13:56:47.284Z,400
2017-01-15T13:57:47.691Z,392
2017-01-15T13:58:47.595Z,328
2017-01-15T13:59:47.159Z,308
2017-01-15T14:00:48.102Z,300
2017-01-15T14:01:47.166Z,288
2017-01-15T14:02:48.023Z,280
2017-01-15T14:03:47.628Z,268
2017-01-15T14:04:47.637Z,264
2017-01-15T14:05:48.041Z,256
2017-01-15T14:06:48.599Z,264
2017-01-15T14:07:47.762Z,264
2017-01-15T14:08:47.971Z,264
2017-01-15T14:09:47.683Z,276
2017-01-15T14:10:47.389Z,288
2017-01-15T14:11:48.145Z,300
2017-01-15T14:12:47.657Z,320
2017-01-15T14:13:48.148Z,356
2017-01-15T14:14:47.311Z,392